GEV weather

Gällivare Airport
Gällivare, Norrbottena län, Sweden

Public forecast

Using degrees Celsius for public forecast. Weather courtesy of forecast.io.

Current aviation weather report (METAR) for Gällivare Airport

Retrieved 2020/01/29 19:20 UTC (39 minutes ago):

ESNG 291920Z 08003KT 9999 -SN OVC013 M11/M13 Q1004

Aviation forecast (TAF) for Gällivare Airport

Forecast is more than 12 hours old.

Retrieved 2018/11/29 06:35 UTC (1 year ago):

TAF ESNG 290530Z 2906/3012 VRB02KT CAVOK PROB40 2910/2912 2000 -SN VV010